createdAt,value
2022-10-24T00:00:25.512Z,8.80
2022-10-24T00:10:50.582Z,8.60
2022-10-24T00:20:54.728Z,8.20
2022-10-24T00:30:58.668Z,7.70
2022-10-24T00:41:02.533Z,7.70
2022-10-24T00:51:17.347Z,7.00
2022-10-24T01:01:21.247Z,7.10
2022-10-24T01:11:34.290Z,6.90
2022-10-24T01:21:46.651Z,5.70
2022-10-24T01:32:17.237Z,6.60
2022-10-24T01:42:23.439Z,5.70
2022-10-24T01:52:32.256Z,6.10
2022-10-24T02:02:49.425Z,6.00
2022-10-24T02:13:00.469Z,6.40
2022-10-24T02:23:27.647Z,6.40
2022-10-24T02:33:32.969Z,8.50
2022-10-24T02:43:39.183Z,6.40
2022-10-24T02:53:43.063Z,5.50
2022-10-24T03:03:47.239Z,6.50
2022-10-24T03:13:51.641Z,5.50
2022-10-24T03:23:55.342Z,5.00
2022-10-24T03:33:59.767Z,4.60
2022-10-24T03:44:03.566Z,3.60
2022-10-24T03:54:07.294Z,5.30
2022-10-24T04:04:10.887Z,8.80
2022-10-24T04:14:15.071Z,8.30
2022-10-24T04:24:18.722Z,9.10
2022-10-24T04:34:22.597Z,6.90
2022-10-24T04:44:26.067Z,5.90
2022-10-24T04:54:29.618Z,7.10
2022-10-24T05:04:33.571Z,6.10
2022-10-24T05:14:37.364Z,5.00
2022-10-24T05:24:41.564Z,6.00
2022-10-24T05:34:45.401Z,9.10
2022-10-24T05:44:49.568Z,7.60
2022-10-24T05:55:06.698Z,5.80
2022-10-24T06:05:12.604Z,7.80
2022-10-24T06:15:16.248Z,11.50
2022-10-24T06:25:20.509Z,8.80
2022-10-24T06:35:24.178Z,11.30
2022-10-24T06:45:28.085Z,8.30
2022-10-24T06:55:31.905Z,8.00
2022-10-24T07:05:37.413Z,8.10
2022-10-24T07:15:41.581Z,23.70
2022-10-24T07:25:45.826Z,9.40
2022-10-24T07:35:49.910Z,7.80
2022-10-24T07:45:54.141Z,4.00
2022-10-24T07:56:00.439Z,3.40
2022-10-24T08:06:17.118Z,3.20
2022-10-24T08:16:23.132Z,2.70
2022-10-24T08:26:27.820Z,3.30
2022-10-24T08:36:37.498Z,2.70
2022-10-24T08:47:19.713Z,2.80
2022-10-24T08:57:29.563Z,3.00
2022-10-24T09:07:33.869Z,2.40
2022-10-24T09:17:38.665Z,3.80
2022-10-24T09:27:44.271Z,2.60
2022-10-24T09:37:55.906Z,2.50
2022-10-24T09:48:24.687Z,2.70
2022-10-24T09:58:36.204Z,3.10
2022-10-24T10:08:41.575Z,3.00
2022-10-24T10:18:47.510Z,2.50
2022-10-24T10:29:21.252Z,2.80
2022-10-24T10:39:57.868Z,2.80
2022-10-24T10:50:03.508Z,3.00
2022-10-24T11:00:18.720Z,2.30
2022-10-24T11:10:28.334Z,2.50
2022-10-24T11:20:38.340Z,2.50
2022-10-24T11:30:56.534Z,3.10
2022-10-24T11:41:20.553Z,3.20
2022-10-24T11:51:39.575Z,3.50
2022-10-24T12:01:52.329Z,3.70
2022-10-24T12:12:19.021Z,3.90
2022-10-24T12:22:30.504Z,3.60
2022-10-24T12:32:41.007Z,3.50
2022-10-24T12:42:44.942Z,3.20
2022-10-24T12:52:50.475Z,3.50
2022-10-24T13:03:08.662Z,3.10
2022-10-24T13:13:44.157Z,3.50
2022-10-24T13:23:49.769Z,3.00
2022-10-24T13:34:07.341Z,3.50
2022-10-24T13:44:45.911Z,3.80
2022-10-24T13:54:56.629Z,3.60
2022-10-24T14:05:02.804Z,3.40
2022-10-24T14:15:20.654Z,3.70
2022-10-24T14:35:37.554Z,4.00
2022-10-24T14:45:41.162Z,3.30
2022-10-24T14:55:51.507Z,4.40
2022-10-24T15:06:10.028Z,61.00
2022-10-24T15:16:29.011Z,9.50
2022-10-24T15:26:41.065Z,8.20
2022-10-24T15:36:47.735Z,8.20
2022-10-24T15:46:51.558Z,13.70
2022-10-24T15:56:56.239Z,25.00
2022-10-24T16:07:00.869Z,13.20
2022-10-24T16:17:04.960Z,15.30
2022-10-24T16:27:09.699Z,9.50
2022-10-24T16:37:13.361Z,13.70
2022-10-24T16:47:18.354Z,17.20
2022-10-24T17:07:28.762Z,22.00
2022-10-24T17:17:35.348Z,19.30
2022-10-24T17:27:39.962Z,14.40
2022-10-24T17:37:47.836Z,28.30
2022-10-24T17:47:53.963Z,17.00
2022-10-24T17:57:59.264Z,27.60
2022-10-24T18:08:07.119Z,30.20
2022-10-24T18:18:12.784Z,20.60
2022-10-24T18:28:17.221Z,21.50
2022-10-24T18:38:22.297Z,19.20
2022-10-24T18:48:30.402Z,21.90
2022-10-24T18:58:36.566Z,27.60
2022-10-24T19:08:41.053Z,56.00
2022-10-24T19:18:55.096Z,24.60
2022-10-24T19:29:03.533Z,23.60
2022-10-24T19:39:10.711Z,30.40
2022-10-24T19:49:15.522Z,23.90
2022-10-24T19:59:22.295Z,49.10
2022-10-24T20:09:27.125Z,24.20
2022-10-24T20:19:32.336Z,27.60
2022-10-24T20:29:37.352Z,37.90
2022-10-24T20:39:41.711Z,25.20
2022-10-24T20:49:45.378Z,25.80
2022-10-24T20:59:49.859Z,24.70
2022-10-24T21:09:57.825Z,30.10
2022-10-24T21:20:03.228Z,26.40
2022-10-24T21:30:12.156Z,31.80
2022-10-24T21:40:18.746Z,60.40
2022-10-24T21:50:22.619Z,28.10
2022-10-24T22:00:26.423Z,43.40
2022-10-24T22:10:30.158Z,34.20
2022-10-24T22:20:35.167Z,26.40
2022-10-24T22:30:40.515Z,27.70
2022-10-24T22:40:44.379Z,24.10
2022-10-24T22:50:54.657Z,23.20
2022-10-24T23:01:23.382Z,23.60
2022-10-24T23:11:27.506Z,21.40
2022-10-24T23:21:38.407Z,22.70
2022-10-24T23:31:42.330Z,20.70
2022-10-24T23:41:46.230Z,19.60
2022-10-24T23:52:12.416Z,18.30
